sensor_id;sensor_type;location;lat;lon;timestamp;temperature;humidity
77052;SHT30;65980;44.898;8.602;2024-01-07T00:02:30;7.18;88.54
77052;SHT30;65980;44.898;8.602;2024-01-07T00:05:36;6.97;88.69
77052;SHT30;65980;44.898;8.602;2024-01-07T00:08:41;7.04;89.48
77052;SHT30;65980;44.898;8.602;2024-01-07T00:11:45;7.05;88.63
77052;SHT30;65980;44.898;8.602;2024-01-07T00:14:49;7.13;88.94
77052;SHT30;65980;44.898;8.602;2024-01-07T00:17:54;7.13;89.16
77052;SHT30;65980;44.898;8.602;2024-01-07T00:20:57;7.15;89.25
77052;SHT30;65980;44.898;8.602;2024-01-07T00:24:03;6.82;89.26
77052;SHT30;65980;44.898;8.602;2024-01-07T00:27:07;7.03;89.02
77052;SHT30;65980;44.898;8.602;2024-01-07T00:30:13;7.07;88.87
77052;SHT30;65980;44.898;8.602;2024-01-07T00:33:18;7.14;88.96
77052;SHT30;65980;44.898;8.602;2024-01-07T00:36:22;7.25;88.72
77052;SHT30;65980;44.898;8.602;2024-01-07T00:39:25;7.32;88.32
77052;SHT30;65980;44.898;8.602;2024-01-07T00:42:29;7.13;88.33
77052;SHT30;65980;44.898;8.602;2024-01-07T00:45:33;6.99;88.96
77052;SHT30;65980;44.898;8.602;2024-01-07T00:48:37;7.01;88.87
77052;SHT30;65980;44.898;8.602;2024-01-07T00:51:41;7.07;88.38
77052;SHT30;65980;44.898;8.602;2024-01-07T00:54:47;7.11;88.91
77052;SHT30;65980;44.898;8.602;2024-01-07T00:57:51;7.15;89.16
77052;SHT30;65980;44.898;8.602;2024-01-07T01:00:55;7.20;89.02
77052;SHT30;65980;44.898;8.602;2024-01-07T01:04:00;7.24;88.99
77052;SHT30;65980;44.898;8.602;2024-01-07T01:07:04;7.32;88.63
77052;SHT30;65980;44.898;8.602;2024-01-07T01:10:09;7.27;88.71
77052;SHT30;65980;44.898;8.602;2024-01-07T01:13:14;7.27;88.70
77052;SHT30;65980;44.898;8.602;2024-01-07T01:16:18;7.28;88.65
77052;SHT30;65980;44.898;8.602;2024-01-07T01:19:24;7.32;88.68
77052;SHT30;65980;44.898;8.602;2024-01-07T01:22:28;7.45;88.52
77052;SHT30;65980;44.898;8.602;2024-01-07T01:25:33;7.38;88.38
77052;SHT30;65980;44.898;8.602;2024-01-07T01:28:37;7.34;87.84
77052;SHT30;65980;44.898;8.602;2024-01-07T01:31:41;7.10;88.65
77052;SHT30;65980;44.898;8.602;2024-01-07T01:34:46;7.11;88.60
77052;SHT30;65980;44.898;8.602;2024-01-07T01:37:50;7.10;89.02
77052;SHT30;65980;44.898;8.602;2024-01-07T01:40:55;7.18;88.81
77052;SHT30;65980;44.898;8.602;2024-01-07T01:44:00;7.14;88.77
77052;SHT30;65980;44.898;8.602;2024-01-07T01:47:06;7.25;88.67
77052;SHT30;65980;44.898;8.602;2024-01-07T01:50:10;7.36;88.28
77052;SHT30;65980;44.898;8.602;2024-01-07T01:53:16;7.14;88.74
77052;SHT30;65980;44.898;8.602;2024-01-07T01:56:22;7.04;89.55
77052;SHT30;65980;44.898;8.602;2024-01-07T01:59:28;7.10;88.56
77052;SHT30;65980;44.898;8.602;2024-01-07T02:02:32;7.15;88.65
77052;SHT30;65980;44.898;8.602;2024-01-07T02:05:39;6.97;89.07
77052;SHT30;65980;44.898;8.602;2024-01-07T02:08:43;6.92;90.74
77052;SHT30;65980;44.898;8.602;2024-01-07T02:12:04;6.85;90.68
77052;SHT30;65980;44.898;8.602;2024-01-07T02:15:08;6.90;90.75
77052;SHT30;65980;44.898;8.602;2024-01-07T02:18:13;6.86;90.54
77052;SHT30;65980;44.898;8.602;2024-01-07T02:21:18;6.79;90.94
77052;SHT30;65980;44.898;8.602;2024-01-07T02:24:23;6.96;90.52
77052;SHT30;65980;44.898;8.602;2024-01-07T02:27:27;7.17;89.63
77052;SHT30;65980;44.898;8.602;2024-01-07T02:30:32;7.27;89.09
77052;SHT30;65980;44.898;8.602;2024-01-07T02:33:36;7.32;88.74
77052;SHT30;65980;44.898;8.602;2024-01-07T02:36:41;7.36;88.37
77052;SHT30;65980;44.898;8.602;2024-01-07T02:39:46;7.27;87.79
77052;SHT30;65980;44.898;8.602;2024-01-07T02:42:50;7.22;88.13
77052;SHT30;65980;44.898;8.602;2024-01-07T02:45:54;6.97;88.38
77052;SHT30;65980;44.898;8.602;2024-01-07T02:48:59;6.49;90.87
77052;SHT30;65980;44.898;8.602;2024-01-07T02:52:04;6.37;91.78
77052;SHT30;65980;44.898;8.602;2024-01-07T02:55:08;6.34;91.91
77052;SHT30;65980;44.898;8.602;2024-01-07T02:58:13;6.37;91.76
77052;SHT30;65980;44.898;8.602;2024-01-07T03:01:22;6.32;92.30
77052;SHT30;65980;44.898;8.602;2024-01-07T03:04:27;6.24;92.27
77052;SHT30;65980;44.898;8.602;2024-01-07T03:07:31;6.20;92.64
77052;SHT30;65980;44.898;8.602;2024-01-07T03:10:36;6.16;92.89
77052;SHT30;65980;44.898;8.602;2024-01-07T03:13:40;6.11;92.91
77052;SHT30;65980;44.898;8.602;2024-01-07T03:16:44;6.18;92.97
77052;SHT30;65980;44.898;8.602;2024-01-07T03:19:48;6.20;92.53
77052;SHT30;65980;44.898;8.602;2024-01-07T03:22:52;6.13;92.77
77052;SHT30;65980;44.898;8.602;2024-01-07T03:25:58;6.17;92.92
77052;SHT30;65980;44.898;8.602;2024-01-07T03:29:03;6.13;92.68
77052;SHT30;65980;44.898;8.602;2024-01-07T03:32:07;6.10;92.75
77052;SHT30;65980;44.898;8.602;2024-01-07T03:35:11;6.10;92.99
77052;SHT30;65980;44.898;8.602;2024-01-07T03:38:16;6.02;93.13
77052;SHT30;65980;44.898;8.602;2024-01-07T03:41:20;6.02;93.17
77052;SHT30;65980;44.898;8.602;2024-01-07T03:44:24;5.96;93.09
77052;SHT30;65980;44.898;8.602;2024-01-07T03:47:29;5.96;93.05
77052;SHT30;65980;44.898;8.602;2024-01-07T03:50:35;5.92;93.05
77052;SHT30;65980;44.898;8.602;2024-01-07T03:53:46;5.87;93.26
77052;SHT30;65980;44.898;8.602;2024-01-07T03:56:51;5.96;93.11
77052;SHT30;65980;44.898;8.602;2024-01-07T03:59:56;5.93;92.94
77052;SHT30;65980;44.898;8.602;2024-01-07T04:03:01;5.93;93.10
77052;SHT30;65980;44.898;8.602;2024-01-07T04:06:06;5.90;93.23
77052;SHT30;65980;44.898;8.602;2024-01-07T04:09:11;5.89;93.26
77052;SHT30;65980;44.898;8.602;2024-01-07T04:12:15;5.90;93.21
77052;SHT30;65980;44.898;8.602;2024-01-07T04:15:20;5.83;93.25
77052;SHT30;65980;44.898;8.602;2024-01-07T04:18:24;5.86;93.42
77052;SHT30;65980;44.898;8.602;2024-01-07T04:21:28;5.93;93.40
77052;SHT30;65980;44.898;8.602;2024-01-07T04:24:34;5.86;93.27
77052;SHT30;65980;44.898;8.602;2024-01-07T04:27:38;5.86;93.36
77052;SHT30;65980;44.898;8.602;2024-01-07T04:30:43;5.85;93.08
77052;SHT30;65980;44.898;8.602;2024-01-07T04:33:47;5.76;93.26
77052;SHT30;65980;44.898;8.602;2024-01-07T04:36:51;5.70;93.58
77052;SHT30;65980;44.898;8.602;2024-01-07T04:39:56;5.72;93.60
77052;SHT30;65980;44.898;8.602;2024-01-07T04:43:01;5.77;93.69
77052;SHT30;65980;44.898;8.602;2024-01-07T04:46:05;5.89;93.33
77052;SHT30;65980;44.898;8.602;2024-01-07T04:49:10;5.92;92.90
77052;SHT30;65980;44.898;8.602;2024-01-07T04:52:14;5.87;92.96
77052;SHT30;65980;44.898;8.602;2024-01-07T04:55:18;6.00;93.00
77052;SHT30;65980;44.898;8.602;2024-01-07T04:58:22;6.18;92.82
77052;SHT30;65980;44.898;8.602;2024-01-07T05:01:26;6.13;91.96
77052;SHT30;65980;44.898;8.602;2024-01-07T05:04:32;6.16;91.27
77052;SHT30;65980;44.898;8.602;2024-01-07T05:07:37;6.34;91.28
77052;SHT30;65980;44.898;8.602;2024-01-07T05:10:41;6.55;90.59
77052;SHT30;65980;44.898;8.602;2024-01-07T05:13:45;6.69;90.34
77052;SHT30;65980;44.898;8.602;2024-01-07T05:16:50;6.83;89.92
77052;SHT30;65980;44.898;8.602;2024-01-07T05:19:54;6.89;89.44
77052;SHT30;65980;44.898;8.602;2024-01-07T05:22:59;6.96;88.96
77052;SHT30;65980;44.898;8.602;2024-01-07T05:26:03;7.03;88.80
77052;SHT30;65980;44.898;8.602;2024-01-07T05:29:07;7.05;88.59
77052;SHT30;65980;44.898;8.602;2024-01-07T05:32:11;7.07;88.78
77052;SHT30;65980;44.898;8.602;2024-01-07T05:35:16;6.94;88.45
77052;SHT30;65980;44.898;8.602;2024-01-07T05:38:21;6.94;89.34
77052;SHT30;65980;44.898;8.602;2024-01-07T05:41:25;7.01;88.86
77052;SHT30;65980;44.898;8.602;2024-01-07T05:44:29;7.00;88.82
77052;SHT30;65980;44.898;8.602;2024-01-07T05:47:33;6.96;88.89
77052;SHT30;65980;44.898;8.602;2024-01-07T05:50:37;7.03;89.08
77052;SHT30;65980;44.898;8.602;2024-01-07T05:53:41;7.01;88.83
77052;SHT30;65980;44.898;8.602;2024-01-07T05:56:46;6.79;89.34
77052;SHT30;65980;44.898;8.602;2024-01-07T05:59:51;6.93;89.25
77052;SHT30;65980;44.898;8.602;2024-01-07T06:02:55;7.04;88.96
77052;SHT30;65980;44.898;8.602;2024-01-07T06:06:00;7.07;88.63
77052;SHT30;65980;44.898;8.602;2024-01-07T06:09:05;6.82;88.40
77052;SHT30;65980;44.898;8.602;2024-01-07T06:12:10;6.45;89.82
77052;SHT30;65980;44.898;8.602;2024-01-07T06:15:14;6.32;90.65
77052;SHT30;65980;44.898;8.602;2024-01-07T06:18:18;6.45;90.80
77052;SHT30;65980;44.898;8.602;2024-01-07T06:21:23;6.40;90.81
77052;SHT30;65980;44.898;8.602;2024-01-07T06:24:27;6.56;90.37
77052;SHT30;65980;44.898;8.602;2024-01-07T06:27:31;6.66;90.33
77052;SHT30;65980;44.898;8.602;2024-01-07T06:30:35;6.89;89.63
77052;SHT30;65980;44.898;8.602;2024-01-07T06:33:39;6.90;88.98
77052;SHT30;65980;44.898;8.602;2024-01-07T06:36:44;6.38;90.28
77052;SHT30;65980;44.898;8.602;2024-01-07T06:39:48;6.41;91.03
77052;SHT30;65980;44.898;8.602;2024-01-07T06:42:52;6.52;90.82
77052;SHT30;65980;44.898;8.602;2024-01-07T06:45:56;6.32;91.18
77052;SHT30;65980;44.898;8.602;2024-01-07T06:49:00;6.35;91.47
77052;SHT30;65980;44.898;8.602;2024-01-07T06:52:05;6.61;90.85
77052;SHT30;65980;44.898;8.602;2024-01-07T06:55:09;6.75;90.30
77052;SHT30;65980;44.898;8.602;2024-01-07T06:58:13;6.76;89.49
77052;SHT30;65980;44.898;8.602;2024-01-07T07:01:21;6.28;90.77
77052;SHT30;65980;44.898;8.602;2024-01-07T07:04:29;6.27;90.97
77052;SHT30;65980;44.898;8.602;2024-01-07T07:07:33;6.31;90.92
77052;SHT30;65980;44.898;8.602;2024-01-07T07:10:37;6.24;90.66
77052;SHT30;65980;44.898;8.602;2024-01-07T07:13:42;6.06;91.39
77052;SHT30;65980;44.898;8.602;2024-01-07T07:16:46;6.02;91.58
77052;SHT30;65980;44.898;8.602;2024-01-07T07:19:56;5.90;91.49
77052;SHT30;65980;44.898;8.602;2024-01-07T07:23:01;5.94;91.32
77052;SHT30;65980;44.898;8.602;2024-01-07T07:26:05;5.92;91.30
77052;SHT30;65980;44.898;8.602;2024-01-07T07:29:11;5.93;91.76
77052;SHT30;65980;44.898;8.602;2024-01-07T07:32:15;6.10;91.58
77052;SHT30;65980;44.898;8.602;2024-01-07T07:35:21;6.16;90.51
77052;SHT30;65980;44.898;8.602;2024-01-07T07:38:26;6.24;90.75
77052;SHT30;65980;44.898;8.602;2024-01-07T07:41:32;6.37;90.06
77052;SHT30;65980;44.898;8.602;2024-01-07T07:44:37;6.11;90.45
77052;SHT30;65980;44.898;8.602;2024-01-07T07:47:44;6.14;90.56
77052;SHT30;65980;44.898;8.602;2024-01-07T07:50:49;6.37;90.01
77052;SHT30;65980;44.898;8.602;2024-01-07T07:53:54;6.31;89.91
77052;SHT30;65980;44.898;8.602;2024-01-07T07:56:59;6.44;90.04
77052;SHT30;65980;44.898;8.602;2024-01-07T08:00:05;6.66;89.48
77052;SHT30;65980;44.898;8.602;2024-01-07T08:03:10;6.45;89.30
77052;SHT30;65980;44.898;8.602;2024-01-07T08:06:15;6.56;89.61
77052;SHT30;65980;44.898;8.602;2024-01-07T08:09:20;6.83;89.26
77052;SHT30;65980;44.898;8.602;2024-01-07T08:12:24;6.89;88.23
77052;SHT30;65980;44.898;8.602;2024-01-07T08:15:29;7.01;88.06
77052;SHT30;65980;44.898;8.602;2024-01-07T08:18:34;6.87;87.65
77052;SHT30;65980;44.898;8.602;2024-01-07T08:21:38;7.10;87.65
77052;SHT30;65980;44.898;8.602;2024-01-07T08:24:42;7.27;87.23
77052;SHT30;65980;44.898;8.602;2024-01-07T08:27:47;7.36;86.73
77052;SHT30;65980;44.898;8.602;2024-01-07T08:30:51;7.17;86.98
77052;SHT30;65980;44.898;8.602;2024-01-07T08:33:57;7.31;86.91
77052;SHT30;65980;44.898;8.602;2024-01-07T08:37:01;7.32;86.52
77052;SHT30;65980;44.898;8.602;2024-01-07T08:40:05;6.90;88.15
77052;SHT30;65980;44.898;8.602;2024-01-07T08:43:13;7.11;88.11
77052;SHT30;65980;44.898;8.602;2024-01-07T08:46:20;6.96;87.82
77052;SHT30;65980;44.898;8.602;2024-01-07T08:49:27;7.15;87.44
77052;SHT30;65980;44.898;8.602;2024-01-07T08:52:32;7.34;87.25
77052;SHT30;65980;44.898;8.602;2024-01-07T08:55:39;7.48;86.27
77052;SHT30;65980;44.898;8.602;2024-01-07T08:58:44;7.54;86.79
77052;SHT30;65980;44.898;8.602;2024-01-07T09:01:48;7.62;86.37
77052;SHT30;65980;44.898;8.602;2024-01-07T09:04:52;7.80;85.92
77052;SHT30;65980;44.898;8.602;2024-01-07T09:07:56;7.90;85.75
77052;SHT30;65980;44.898;8.602;2024-01-07T09:11:03;7.90;84.89
77052;SHT30;65980;44.898;8.602;2024-01-07T09:14:08;7.96;84.66
77052;SHT30;65980;44.898;8.602;2024-01-07T09:17:12;7.93;84.79
77052;SHT30;65980;44.898;8.602;2024-01-07T09:20:17;7.87;84.62
77052;SHT30;65980;44.898;8.602;2024-01-07T09:23:22;7.96;85.00
77052;SHT30;65980;44.898;8.602;2024-01-07T09:26:27;7.97;84.36
77052;SHT30;65980;44.898;8.602;2024-01-07T09:29:33;7.86;85.00
77052;SHT30;65980;44.898;8.602;2024-01-07T09:32:37;7.93;85.05
77052;SHT30;65980;44.898;8.602;2024-01-07T09:35:41;7.62;85.11
77052;SHT30;65980;44.898;8.602;2024-01-07T09:38:46;7.07;88.15
77052;SHT30;65980;44.898;8.602;2024-01-07T09:41:50;7.27;88.47
77052;SHT30;65980;44.898;8.602;2024-01-07T09:44:55;7.62;87.45
77052;SHT30;65980;44.898;8.602;2024-01-07T09:48:00;7.83;86.78
77052;SHT30;65980;44.898;8.602;2024-01-07T09:51:04;7.91;85.24
77052;SHT30;65980;44.898;8.602;2024-01-07T09:54:11;8.04;85.31
77052;SHT30;65980;44.898;8.602;2024-01-07T09:57:19;8.31;85.23
77052;SHT30;65980;44.898;8.602;2024-01-07T10:00:27;7.86;85.72
77052;SHT30;65980;44.898;8.602;2024-01-07T10:03:32;7.76;85.95
77052;SHT30;65980;44.898;8.602;2024-01-07T10:06:37;7.62;87.40
77052;SHT30;65980;44.898;8.602;2024-01-07T10:09:43;7.73;87.37
77052;SHT30;65980;44.898;8.602;2024-01-07T10:12:48;7.70;87.55
77052;SHT30;65980;44.898;8.602;2024-01-07T10:15:51;7.70;87.41
77052;SHT30;65980;44.898;8.602;2024-01-07T10:18:56;7.58;88.09
77052;SHT30;65980;44.898;8.602;2024-01-07T10:22:04;7.38;88.41
77052;SHT30;65980;44.898;8.602;2024-01-07T10:25:09;7.41;88.42
77052;SHT30;65980;44.898;8.602;2024-01-07T10:28:14;7.56;88.09
77052;SHT30;65980;44.898;8.602;2024-01-07T10:31:20;7.59;88.47
77052;SHT30;65980;44.898;8.602;2024-01-07T10:34:26;7.54;87.48
77052;SHT30;65980;44.898;8.602;2024-01-07T10:37:33;7.51;88.02
77052;SHT30;65980;44.898;8.602;2024-01-07T10:40:38;7.77;87.35
77052;SHT30;65980;44.898;8.602;2024-01-07T10:43:46;7.82;86.75
77052;SHT30;65980;44.898;8.602;2024-01-07T10:46:53;7.85;87.01
77052;SHT30;65980;44.898;8.602;2024-01-07T10:50:02;8.13;86.90
77052;SHT30;65980;44.898;8.602;2024-01-07T10:53:08;8.37;85.24
77052;SHT30;65980;44.898;8.602;2024-01-07T10:56:16;8.53;85.20
77052;SHT30;65980;44.898;8.602;2024-01-07T10:59:23;8.56;84.57
77052;SHT30;65980;44.898;8.602;2024-01-07T11:02:28;8.42;85.17
77052;SHT30;65980;44.898;8.602;2024-01-07T11:05:40;8.32;84.68
77052;SHT30;65980;44.898;8.602;2024-01-07T11:08:54;8.41;84.45
77052;SHT30;65980;44.898;8.602;2024-01-07T11:12:00;8.73;83.98
77052;SHT30;65980;44.898;8.602;2024-01-07T11:15:04;8.84;83.88
77052;SHT30;65980;44.898;8.602;2024-01-07T11:18:08;8.86;83.52
77052;SHT30;65980;44.898;8.602;2024-01-07T11:21:21;8.91;83.00
77052;SHT30;65980;44.898;8.602;2024-01-07T11:24:38;9.03;82.77
77052;SHT30;65980;44.898;8.602;2024-01-07T11:27:46;9.17;81.96
77052;SHT30;65980;44.898;8.602;2024-01-07T11:30:54;9.03;82.83
77052;SHT30;65980;44.898;8.602;2024-01-07T11:33:57;9.04;82.62
77052;SHT30;65980;44.898;8.602;2024-01-07T11:37:02;8.91;82.19
77052;SHT30;65980;44.898;8.602;2024-01-07T11:40:10;9.04;81.43
77052;SHT30;65980;44.898;8.602;2024-01-07T11:43:15;9.35;81.24
77052;SHT30;65980;44.898;8.602;2024-01-07T11:46:19;9.41;80.78
77052;SHT30;65980;44.898;8.602;2024-01-07T11:49:23;9.20;80.85
77052;SHT30;65980;44.898;8.602;2024-01-07T11:52:28;9.32;80.45
77052;SHT30;65980;44.898;8.602;2024-01-07T11:55:33;9.42;80.28
77052;SHT30;65980;44.898;8.602;2024-01-07T11:58:41;9.50;80.63
77052;SHT30;65980;44.898;8.602;2024-01-07T12:01:46;9.56;79.31
77052;SHT30;65980;44.898;8.602;2024-01-07T12:04:51;9.48;81.44
77052;SHT30;65980;44.898;8.602;2024-01-07T12:07:56;9.30;81.38
77052;SHT30;65980;44.898;8.602;2024-01-07T12:11:00;9.63;80.74
77052;SHT30;65980;44.898;8.602;2024-01-07T12:14:10;9.97;80.21
77052;SHT30;65980;44.898;8.602;2024-01-07T12:17:17;10.15;78.80
77052;SHT30;65980;44.898;8.602;2024-01-07T12:20:21;10.34;78.13
77052;SHT30;65980;44.898;8.602;2024-01-07T12:23:28;10.41;77.01
77052;SHT30;65980;44.898;8.602;2024-01-07T12:26:32;10.39;75.94
77052;SHT30;65980;44.898;8.602;2024-01-07T12:29:36;10.56;76.58
77052;SHT30;65980;44.898;8.602;2024-01-07T12:32:41;10.65;75.70
77052;SHT30;65980;44.898;8.602;2024-01-07T12:35:47;10.75;74.36
77052;SHT30;65980;44.898;8.602;2024-01-07T12:38:58;10.81;74.54
77052;SHT30;65980;44.898;8.602;2024-01-07T12:42:03;10.90;73.78
77052;SHT30;65980;44.898;8.602;2024-01-07T12:45:11;10.84;73.27
77052;SHT30;65980;44.898;8.602;2024-01-07T12:48:17;10.90;74.01
77052;SHT30;65980;44.898;8.602;2024-01-07T12:51:21;10.48;75.46
77052;SHT30;65980;44.898;8.602;2024-01-07T12:54:25;10.49;75.90
77052;SHT30;65980;44.898;8.602;2024-01-07T12:57:30;10.35;75.41
77052;SHT30;65980;44.898;8.602;2024-01-07T13:00:36;10.21;75.16
77052;SHT30;65980;44.898;8.602;2024-01-07T13:03:41;10.28;75.03
77052;SHT30;65980;44.898;8.602;2024-01-07T13:06:45;10.30;75.74
77052;SHT30;65980;44.898;8.602;2024-01-07T13:09:49;10.38;75.20
77052;SHT30;65980;44.898;8.602;2024-01-07T13:12:53;10.37;75.51
77052;SHT30;65980;44.898;8.602;2024-01-07T13:15:58;10.48;75.23
77052;SHT30;65980;44.898;8.602;2024-01-07T13:19:05;10.44;75.26
77052;SHT30;65980;44.898;8.602;2024-01-07T13:22:10;10.37;75.00
77052;SHT30;65980;44.898;8.602;2024-01-07T13:25:15;10.41;74.22
77052;SHT30;65980;44.898;8.602;2024-01-07T13:28:20;10.50;74.87
77052;SHT30;65980;44.898;8.602;2024-01-07T13:31:24;10.70;74.39
77052;SHT30;65980;44.898;8.602;2024-01-07T13:34:28;10.81;74.22
77052;SHT30;65980;44.898;8.602;2024-01-07T13:37:34;10.70;70.62
77052;SHT30;65980;44.898;8.602;2024-01-07T13:40:38;10.83;71.86
77052;SHT30;65980;44.898;8.602;2024-01-07T13:43:42;10.87;72.37
77052;SHT30;65980;44.898;8.602;2024-01-07T13:46:53;10.87;74.50
77052;SHT30;65980;44.898;8.602;2024-01-07T13:50:12;10.72;74.88
77052;SHT30;65980;44.898;8.602;2024-01-07T13:53:19;10.72;75.51
77052;SHT30;65980;44.898;8.602;2024-01-07T13:56:23;10.79;74.91
77052;SHT30;65980;44.898;8.602;2024-01-07T13:59:28;10.80;74.90
77052;SHT30;65980;44.898;8.602;2024-01-07T14:02:39;10.41;76.01
77052;SHT30;65980;44.898;8.602;2024-01-07T14:05:44;10.12;77.18
77052;SHT30;65980;44.898;8.602;2024-01-07T14:08:48;10.01;77.50
77052;SHT30;65980;44.898;8.602;2024-01-07T14:11:53;10.22;77.40
77052;SHT30;65980;44.898;8.602;2024-01-07T14:14:58;10.11;77.45
77052;SHT30;65980;44.898;8.602;2024-01-07T14:18:05;10.12;77.94
77052;SHT30;65980;44.898;8.602;2024-01-07T14:21:10;10.31;78.05
77052;SHT30;65980;44.898;8.602;2024-01-07T14:24:14;10.48;77.56
77052;SHT30;65980;44.898;8.602;2024-01-07T14:27:19;10.42;77.23
77052;SHT30;65980;44.898;8.602;2024-01-07T14:30:24;10.55;77.56
77052;SHT30;65980;44.898;8.602;2024-01-07T14:33:29;10.48;76.78
77052;SHT30;65980;44.898;8.602;2024-01-07T14:36:33;10.22;77.44
77052;SHT30;65980;44.898;8.602;2024-01-07T14:39:38;10.38;77.29
77052;SHT30;65980;44.898;8.602;2024-01-07T14:42:43;10.41;77.20
77052;SHT30;65980;44.898;8.602;2024-01-07T14:45:47;10.41;77.17
77052;SHT30;65980;44.898;8.602;2024-01-07T14:48:52;10.49;77.59
77052;SHT30;65980;44.898;8.602;2024-01-07T14:51:56;10.58;77.28
77052;SHT30;65980;44.898;8.602;2024-01-07T14:55:01;10.63;76.16
77052;SHT30;65980;44.898;8.602;2024-01-07T14:58:06;10.59;75.12
77052;SHT30;65980;44.898;8.602;2024-01-07T15:01:14;10.62;75.58
77052;SHT30;65980;44.898;8.602;2024-01-07T15:04:19;10.66;75.31
77052;SHT30;65980;44.898;8.602;2024-01-07T15:07:24;10.66;75.39
77052;SHT30;65980;44.898;8.602;2024-01-07T15:10:29;10.37;76.27
77052;SHT30;65980;44.898;8.602;2024-01-07T15:13:33;9.84;78.52
77052;SHT30;65980;44.898;8.602;2024-01-07T15:16:39;9.84;78.71
77052;SHT30;65980;44.898;8.602;2024-01-07T15:19:43;10.10;77.41
77052;SHT30;65980;44.898;8.602;2024-01-07T15:22:47;10.21;77.51
77052;SHT30;65980;44.898;8.602;2024-01-07T15:25:52;10.12;78.46
77052;SHT30;65980;44.898;8.602;2024-01-07T15:28:57;10.21;78.37
77052;SHT30;65980;44.898;8.602;2024-01-07T15:32:01;10.18;78.35
77052;SHT30;65980;44.898;8.602;2024-01-07T15:35:05;10.10;78.65
77052;SHT30;65980;44.898;8.602;2024-01-07T15:38:10;10.12;78.62
77052;SHT30;65980;44.898;8.602;2024-01-07T15:41:14;10.18;78.57
77052;SHT30;65980;44.898;8.602;2024-01-07T15:44:18;9.97;79.07
77052;SHT30;65980;44.898;8.602;2024-01-07T15:47:22;9.82;79.25
77052;SHT30;65980;44.898;8.602;2024-01-07T15:50:27;9.89;78.79
77052;SHT30;65980;44.898;8.602;2024-01-07T15:53:35;9.90;78.81
77052;SHT30;65980;44.898;8.602;2024-01-07T15:56:40;9.94;78.30
77052;SHT30;65980;44.898;8.602;2024-01-07T15:59:56;10.04;78.46
77052;SHT30;65980;44.898;8.602;2024-01-07T16:03:08;10.04;78.53
77052;SHT30;65980;44.898;8.602;2024-01-07T16:06:22;10.07;79.03
77052;SHT30;65980;44.898;8.602;2024-01-07T16:09:30;9.98;77.70
77052;SHT30;65980;44.898;8.602;2024-01-07T16:12:40;9.73;79.09
77052;SHT30;65980;44.898;8.602;2024-01-07T16:16:00;9.67;78.98
77052;SHT30;65980;44.898;8.602;2024-01-07T16:19:13;9.52;79.62
77052;SHT30;65980;44.898;8.602;2024-01-07T16:22:23;9.62;79.65
77052;SHT30;65980;44.898;8.602;2024-01-07T16:25:33;9.82;78.39
77052;SHT30;65980;44.898;8.602;2024-01-07T16:28:41;9.83;78.08
77052;SHT30;65980;44.898;8.602;2024-01-07T16:31:57;9.72;78.58
77052;SHT30;65980;44.898;8.602;2024-01-07T16:35:15;9.60;80.11
77052;SHT30;65980;44.898;8.602;2024-01-07T16:38:19;9.63;79.88
77052;SHT30;65980;44.898;8.602;2024-01-07T16:41:24;9.72;80.02
77052;SHT30;65980;44.898;8.602;2024-01-07T16:44:28;9.69;80.36
77052;SHT30;65980;44.898;8.602;2024-01-07T16:47:35;9.62;81.10
77052;SHT30;65980;44.898;8.602;2024-01-07T16:50:42;9.62;81.59
77052;SHT30;65980;44.898;8.602;2024-01-07T16:53:46;9.66;81.84
77052;SHT30;65980;44.898;8.602;2024-01-07T16:56:51;9.36;83.27
77052;SHT30;65980;44.898;8.602;2024-01-07T16:59:55;9.42;83.33
77052;SHT30;65980;44.898;8.602;2024-01-07T17:02:59;9.41;83.29
77052;SHT30;65980;44.898;8.602;2024-01-07T17:06:03;9.52;83.55
77052;SHT30;65980;44.898;8.602;2024-01-07T17:09:11;9.62;82.94
77052;SHT30;65980;44.898;8.602;2024-01-07T17:12:16;9.59;83.55
77052;SHT30;65980;44.898;8.602;2024-01-07T17:15:20;9.38;83.98
77052;SHT30;65980;44.898;8.602;2024-01-07T17:18:24;9.22;84.65
77052;SHT30;65980;44.898;8.602;2024-01-07T17:21:29;9.34;85.09
77052;SHT30;65980;44.898;8.602;2024-01-07T17:24:34;9.17;85.56
77052;SHT30;65980;44.898;8.602;2024-01-07T17:27:39;9.30;85.24
77052;SHT30;65980;44.898;8.602;2024-01-07T17:30:44;8.90;82.49
77052;SHT30;65980;44.898;8.602;2024-01-07T17:33:48;8.73;83.02
77052;SHT30;65980;44.898;8.602;2024-01-07T17:36:55;8.87;83.56
77052;SHT30;65980;44.898;8.602;2024-01-07T17:40:04;8.96;83.49
77052;SHT30;65980;44.898;8.602;2024-01-07T17:43:13;9.04;82.90
77052;SHT30;65980;44.898;8.602;2024-01-07T17:46:17;9.08;83.20
77052;SHT30;65980;44.898;8.602;2024-01-07T17:49:30;9.07;82.31
77052;SHT30;65980;44.898;8.602;2024-01-07T17:52:36;9.10;82.46
77052;SHT30;65980;44.898;8.602;2024-01-07T17:55:54;9.17;81.99
77052;SHT30;65980;44.898;8.602;2024-01-07T17:59:10;9.13;83.24
77052;SHT30;65980;44.898;8.602;2024-01-07T18:02:16;8.90;84.23
77052;SHT30;65980;44.898;8.602;2024-01-07T18:05:24;8.75;86.01
77052;SHT30;65980;44.898;8.602;2024-01-07T18:08:28;8.79;85.87
77052;SHT30;65980;44.898;8.602;2024-01-07T18:11:32;8.80;85.68
77052;SHT30;65980;44.898;8.602;2024-01-07T18:14:37;8.84;84.93
77052;SHT30;65980;44.898;8.602;2024-01-07T18:17:42;8.84;85.37
77052;SHT30;65980;44.898;8.602;2024-01-07T18:20:49;8.90;84.85
77052;SHT30;65980;44.898;8.602;2024-01-07T18:23:53;8.77;85.38
77052;SHT30;65980;44.898;8.602;2024-01-07T18:26:58;8.81;85.31
77052;SHT30;65980;44.898;8.602;2024-01-07T18:30:04;8.80;85.75
77052;SHT30;65980;44.898;8.602;2024-01-07T18:33:17;8.80;86.31
77052;SHT30;65980;44.898;8.602;2024-01-07T18:36:22;8.81;85.77
77052;SHT30;65980;44.898;8.602;2024-01-07T18:39:26;8.76;85.62
77052;SHT30;65980;44.898;8.602;2024-01-07T18:42:32;8.76;85.99
77052;SHT30;65980;44.898;8.602;2024-01-07T18:45:46;8.73;86.65
77052;SHT30;65980;44.898;8.602;2024-01-07T18:48:51;8.69;86.97
77052;SHT30;65980;44.898;8.602;2024-01-07T18:52:00;8.62;86.48
77052;SHT30;65980;44.898;8.602;2024-01-07T18:55:04;8.62;86.89
77052;SHT30;65980;44.898;8.602;2024-01-07T18:58:13;8.72;87.02
77052;SHT30;65980;44.898;8.602;2024-01-07T19:01:21;8.76;86.52
77052;SHT30;65980;44.898;8.602;2024-01-07T19:04:36;8.63;85.84
77052;SHT30;65980;44.898;8.602;2024-01-07T19:07:53;8.52;86.49
77052;SHT30;65980;44.898;8.602;2024-01-07T19:11:09;8.50;86.63
77052;SHT30;65980;44.898;8.602;2024-01-07T19:14:28;8.38;87.48
77052;SHT30;65980;44.898;8.602;2024-01-07T19:17:38;8.41;87.22
77052;SHT30;65980;44.898;8.602;2024-01-07T19:20:47;8.34;86.65
77052;SHT30;65980;44.898;8.602;2024-01-07T19:23:51;8.32;86.77
77052;SHT30;65980;44.898;8.602;2024-01-07T19:26:56;8.41;87.11
77052;SHT30;65980;44.898;8.602;2024-01-07T19:30:00;8.38;86.75
77052;SHT30;65980;44.898;8.602;2024-01-07T19:33:07;8.46;86.91
77052;SHT30;65980;44.898;8.602;2024-01-07T19:36:11;8.46;86.16
77052;SHT30;65980;44.898;8.602;2024-01-07T19:39:18;8.39;86.12
77052;SHT30;65980;44.898;8.602;2024-01-07T19:42:26;8.07;87.39
77052;SHT30;65980;44.898;8.602;2024-01-07T19:45:31;7.90;88.35
77052;SHT30;65980;44.898;8.602;2024-01-07T19:48:38;7.89;89.11